Time;durP1;ratioP1;P1;durP2;ratioP2;P2;SDS_P1;SDS_P2;PMS_P1;PMS_P2;Temp;Humidity;BMP_temperature;BMP_pressure;BME280_temperature;BME280_humidity;BME280_pressure;Samples;Min_cycle;Max_cycle;Signal;HPM_P1;HPM_P2
2024/01/10 00:00:52;;;;;;;13.57;7.50;;;-2.90;99.90;;;;;;4895976;29;20131;-79
2024/01/10 00:03:17;;;;;;;16.80;8.60;;;-2.90;99.90;;;;;;4896043;29;20405;-79
2024/01/10 00:05:43;;;;;;;16.25;9.02;;;-2.90;99.90;;;;;;4896085;29;20052;-81
2024/01/10 00:08:09;;;;;;;17.33;9.25;;;-2.90;99.90;;;;;;4895857;29;20075;-80
2024/01/10 00:10:34;;;;;;;17.27;8.50;;;-2.90;99.90;;;;;;4902751;29;20048;-80
2024/01/10 00:13:00;;;;;;;16.88;8.98;;;-2.90;99.90;;;;;;4914769;29;20143;-77
2024/01/10 00:15:26;;;;;;;16.63;9.20;;;-2.90;99.90;;;;;;4914442;29;20066;-80
2024/01/10 00:17:51;;;;;;;15.65;8.43;;;-2.90;99.90;;;;;;4914827;29;20065;-73
2024/01/10 00:20:17;;;;;;;18.33;10.05;;;-3.00;99.90;;;;;;4914738;29;20060;-74
2024/01/10 00:22:43;;;;;;;19.48;10.35;;;-2.90;99.90;;;;;;4881737;29;20461;-74
2024/01/10 00:25:08;;;;;;;18.83;10.75;;;-3.00;99.90;;;;;;4897390;29;20100;-76
2024/01/10 00:27:34;;;;;;;20.17;10.05;;;-2.90;99.90;;;;;;4914621;29;20401;-80
2024/01/10 00:30:00;;;;;;;18.98;10.18;;;-3.00;99.90;;;;;;4914521;29;20056;-80
2024/01/10 00:32:25;;;;;;;17.90;9.88;;;-3.00;99.90;;;;;;4897378;29;20087;-74
2024/01/10 00:34:51;;;;;;;26.80;12.13;;;-3.00;99.90;;;;;;4914519;29;20052;-77
2024/01/10 00:37:17;;;;;;;18.05;10.38;;;-3.00;99.90;;;;;;4897220;29;20060;-77
2024/01/10 00:39:42;;;;;;;19.52;11.10;;;-3.00;99.90;;;;;;4914662;29;20075;-80
2024/01/10 00:42:08;;;;;;;22.33;12.10;;;-3.00;99.90;;;;;;4897590;29;20048;-79
2024/01/10 00:44:34;;;;;;;25.38;12.73;;;-3.00;99.90;;;;;;4897548;29;20484;-74
2024/01/10 00:47:00;;;;;;;22.60;12.07;;;-3.00;99.90;;;;;;4914467;29;20060;-78
2024/01/10 00:49:26;;;;;;;26.33;13.00;;;-3.00;99.90;;;;;;4913989;29;20107;-72
2024/01/10 00:51:51;;;;;;;24.60;12.55;;;-3.10;99.90;;;;;;4914333;29;20169;-76
2024/01/10 00:54:17;;;;;;;27.80;13.18;;;-3.10;99.90;;;;;;4914681;29;20095;-79
2024/01/10 00:56:43;;;;;;;23.73;13.23;;;-3.10;99.90;;;;;;4900352;29;20052;-80
2024/01/10 00:59:08;;;;;;;24.63;13.30;;;-3.10;99.90;;;;;;4917546;29;20055;-77
2024/01/10 01:01:34;;;;;;;29.15;14.15;;;-3.10;99.90;;;;;;4917373;29;20076;-79
2024/01/10 01:04:00;;;;;;;24.52;13.40;;;-3.10;99.90;;;;;;4900782;29;20102;-79
2024/01/10 01:06:25;;;;;;;24.77;13.40;;;-3.20;99.90;;;;;;4900585;29;20056;-80
2024/01/10 01:08:51;;;;;;;24.25;12.48;;;-3.10;99.90;;;;;;4917470;29;20127;-80
2024/01/10 01:11:17;;;;;;;29.60;14.55;;;-3.20;99.90;;;;;;4899960;29;20056;-80
2024/01/10 01:13:42;;;;;;;29.08;14.50;;;-3.20;99.90;;;;;;4917217;29;20084;-74
2024/01/10 01:16:09;;;;;;;25.13;15.07;;;-3.20;99.90;;;;;;4917260;29;20095;-73
2024/01/10 01:18:35;;;;;;;31.60;15.38;;;-3.20;99.90;;;;;;4917333;29;20398;-73
2024/01/10 01:21:00;;;;;;;23.60;13.23;;;-3.20;99.90;;;;;;4900490;29;20064;-72
2024/01/10 01:23:26;;;;;;;29.25;14.82;;;-3.20;99.90;;;;;;4900024;29;20052;-76
2024/01/10 01:25:52;;;;;;;28.10;15.00;;;-3.30;99.90;;;;;;4916937;29;20056;-73
2024/01/10 01:28:17;;;;;;;28.30;15.88;;;-3.30;99.90;;;;;;4917062;29;20071;-77
2024/01/10 01:30:44;;;;;;;28.85;15.82;;;-3.20;99.90;;;;;;4899869;29;20063;-72
2024/01/10 01:33:09;;;;;;;37.35;16.30;;;-3.20;99.90;;;;;;4917058;29;20091;-75
2024/01/10 01:35:35;;;;;;;28.50;16.35;;;-3.20;99.90;;;;;;4916801;29;20108;-76
2024/01/10 01:38:01;;;;;;;28.17;16.25;;;-3.20;99.90;;;;;;4916967;29;20055;-77
2024/01/10 01:40:26;;;;;;;27.38;15.02;;;-3.20;99.90;;;;;;4899977;29;20393;-81
2024/01/10 01:42:53;;;;;;;26.20;13.65;;;-3.30;99.90;;;;;;4900247;29;20400;-79
2024/01/10 01:45:19;;;;;;;28.25;15.15;;;-3.20;99.90;;;;;;4916877;29;20080;-80
2024/01/10 01:47:45;;;;;;;25.83;14.48;;;-3.30;99.90;;;;;;4917007;29;20186;-80
2024/01/10 01:50:10;;;;;;;27.00;14.52;;;-3.30;99.90;;;;;;4899880;29;20445;-72
2024/01/10 01:52:37;;;;;;;29.40;14.10;;;-3.30;99.90;;;;;;4899696;29;20115;-72
2024/01/10 01:55:05;;;;;;;28.00;14.43;;;-3.20;99.90;;;;;;4916832;29;20052;-80
2024/01/10 01:57:31;;;;;;;26.85;14.40;;;-3.20;99.90;;;;;;4899924;29;20139;-81
2024/01/10 01:59:57;;;;;;;25.95;12.25;;;-3.20;99.90;;;;;;4916323;29;20130;-79
2024/01/10 02:02:24;;;;;;;27.45;14.80;;;-3.20;99.90;;;;;;4916899;29;20544;-80
2024/01/10 02:04:50;;;;;;;22.92;12.80;;;-3.20;99.90;;;;;;4916805;29;20056;-78
2024/01/10 02:07:16;;;;;;;28.55;15.15;;;-3.20;99.90;;;;;;4916447;29;20083;-81
2024/01/10 02:09:42;;;;;;;26.02;14.20;;;-3.20;99.90;;;;;;4916512;29;20048;-80
2024/01/10 02:12:07;;;;;;;30.80;15.10;;;-3.20;99.90;;;;;;4883519;29;20526;-80
2024/01/10 02:14:34;;;;;;;24.75;13.18;;;-3.20;99.90;;;;;;4898906;29;20056;-80
2024/01/10 02:17:00;;;;;;;27.67;15.00;;;-3.20;99.90;;;;;;4916505;29;20048;-79
2024/01/10 02:19:27;;;;;;;27.23;13.82;;;-3.20;99.90;;;;;;4916174;29;20100;-80
2024/01/10 02:21:53;;;;;;;24.73;12.80;;;-3.20;99.90;;;;;;4916245;29;20064;-80
2024/01/10 02:24:18;;;;;;;21.15;12.73;;;-3.20;99.90;;;;;;4916309;29;20071;-81
2024/01/10 02:26:44;;;;;;;30.65;15.90;;;-3.20;99.90;;;;;;4916194;29;20048;-78
2024/01/10 02:29:10;;;;;;;23.45;12.63;;;-3.20;99.90;;;;;;4898985;29;20055;-80
2024/01/10 02:31:36;;;;;;;23.38;12.55;;;-3.20;99.90;;;;;;4916035;29;20048;-81
2024/01/10 02:34:01;;;;;;;27.75;15.02;;;-3.20;99.90;;;;;;4915897;29;20063;-80
2024/01/10 02:36:27;;;;;;;25.02;13.38;;;-3.20;99.90;;;;;;4916064;29;20520;-78
2024/01/10 02:38:53;;;;;;;25.83;13.57;;;-3.20;99.90;;;;;;4916348;29;20062;-80
2024/01/10 02:41:18;;;;;;;29.85;14.80;;;-3.30;99.90;;;;;;4915924;29;20059;-75
2024/01/10 02:43:44;;;;;;;29.10;14.88;;;-3.30;99.90;;;;;;4898719;29;20060;-72
2024/01/10 02:46:10;;;;;;;26.85;14.88;;;-3.30;99.90;;;;;;4915794;29;20496;-78
2024/01/10 02:48:35;;;;;;;28.20;13.57;;;-3.30;99.90;;;;;;4916286;29;20055;-74
2024/01/10 02:51:01;;;;;;;31.20;14.88;;;-3.30;99.90;;;;;;4898629;29;20087;-80
2024/01/10 02:53:26;;;;;;;29.83;15.13;;;-3.30;99.90;;;;;;4915804;29;20083;-76
2024/01/10 02:55:52;;;;;;;27.50;13.88;;;-3.30;99.90;;;;;;4915643;29;20055;-79
2024/01/10 02:58:18;;;;;;;25.92;13.68;;;-3.40;99.90;;;;;;4915866;29;20056;-77
2024/01/10 03:00:44;;;;;;;26.08;13.95;;;-3.40;99.90;;;;;;4882849;29;20048;-75
2024/01/10 03:03:09;;;;;;;25.77;14.60;;;-3.40;99.90;;;;;;4882906;29;20162;-77
2024/01/10 03:05:35;;;;;;;29.23;16.00;;;-3.40;99.90;;;;;;4915426;29;20134;-78
2024/01/10 03:08:02;;;;;;;27.17;14.93;;;-3.40;99.90;;;;;;4898617;29;20052;-74
2024/01/10 03:10:27;;;;;;;35.20;15.75;;;-3.40;99.90;;;;;;4882491;29;20115;-79
2024/01/10 03:12:53;;;;;;;28.35;13.88;;;-3.30;99.90;;;;;;4898404;29;20060;-77
2024/01/10 03:15:19;;;;;;;33.58;15.45;;;-3.30;99.90;;;;;;4914995;29;20135;-78
2024/01/10 03:17:44;;;;;;;31.55;15.07;;;-3.30;99.90;;;;;;4914785;29;20044;-76
2024/01/10 03:20:10;;;;;;;27.05;13.77;;;-3.30;99.90;;;;;;4898248;29;20528;-78
2024/01/10 03:22:37;;;;;;;34.20;15.02;;;-3.30;99.90;;;;;;4915175;29;20052;-77
2024/01/10 03:25:03;;;;;;;28.63;14.45;;;-3.30;99.90;;;;;;4915166;29;20084;-74
2024/01/10 03:27:28;;;;;;;25.65;14.80;;;-3.30;99.90;;;;;;4915320;29;20072;-71
2024/01/10 03:29:54;;;;;;;30.30;15.15;;;-3.40;99.90;;;;;;4898055;29;20088;-72
2024/01/10 03:32:20;;;;;;;29.42;16.08;;;-3.40;99.90;;;;;;4898031;29;20060;-78
2024/01/10 03:34:46;;;;;;;26.90;14.68;;;-3.40;99.90;;;;;;4915651;29;20052;-77
2024/01/10 03:37:11;;;;;;;30.65;16.10;;;-3.40;99.90;;;;;;4914831;29;20500;-81
2024/01/10 03:39:37;;;;;;;29.75;15.48;;;-3.40;99.90;;;;;;4914923;29;20051;-80
2024/01/10 03:42:03;;;;;;;25.17;14.43;;;-3.40;99.90;;;;;;4898013;29;20056;-74
2024/01/10 03:44:29;;;;;;;34.80;16.23;;;-3.50;99.90;;;;;;4898398;29;20513;-78
2024/01/10 03:46:54;;;;;;;28.63;15.45;;;-3.50;99.90;;;;;;4915307;29;20131;-71
2024/01/10 03:49:20;;;;;;;29.77;15.35;;;-3.50;99.90;;;;;;4914930;29;20052;-74
2024/01/10 03:51:46;;;;;;;25.33;14.20;;;-3.50;99.90;;;;;;4881991;29;20107;-71
2024/01/10 03:54:11;;;;;;;25.27;14.52;;;-3.50;99.90;;;;;;4914995;29;20059;-71
2024/01/10 03:56:37;;;;;;;28.80;15.65;;;-3.50;99.90;;;;;;4914708;29;20135;-72
2024/01/10 03:59:02;;;;;;;33.35;15.85;;;-3.50;99.90;;;;;;4914870;29;20480;-71
2024/01/10 04:01:28;;;;;;;26.77;14.50;;;-3.50;99.90;;;;;;4897563;29;20055;-72
2024/01/10 04:03:54;;;;;;;28.73;14.85;;;-3.40;99.90;;;;;;4914816;29;20052;-72
2024/01/10 04:06:20;;;;;;;29.15;14.50;;;-3.40;99.90;;;;;;4897395;29;20058;-72
2024/01/10 04:08:45;;;;;;;31.02;14.43;;;-3.40;99.90;;;;;;4914848;29;20123;-71
2024/01/10 04:11:11;;;;;;;30.23;14.95;;;-3.40;99.90;;;;;;4897188;29;20489;-73
2024/01/10 04:13:37;;;;;;;27.55;13.82;;;-3.40;99.90;;;;;;4897429;29;20523;-73
2024/01/10 04:16:02;;;;;;;27.33;15.07;;;-3.40;99.90;;;;;;4914765;29;20051;-80
2024/01/10 04:18:28;;;;;;;25.65;14.48;;;-3.40;99.90;;;;;;4897668;29;20055;-72
2024/01/10 04:20:54;;;;;;;30.83;15.38;;;-3.40;99.90;;;;;;4914710;29;20040;-74
2024/01/10 04:23:20;;;;;;;28.40;15.23;;;-3.40;99.90;;;;;;4914822;29;20052;-80
2024/01/10 04:25:45;;;;;;;28.05;14.38;;;-3.40;99.90;;;;;;4914060;29;20100;-80
2024/01/10 04:28:11;;;;;;;26.92;15.45;;;-3.40;99.90;;;;;;4898004;29;20048;-77
2024/01/10 04:30:37;;;;;;;27.63;15.35;;;-3.40;99.90;;;;;;4916226;29;20062;-72
2024/01/10 04:33:02;;;;;;;29.27;15.02;;;-3.40;99.90;;;;;;4918705;29;20169;-74
2024/01/10 04:35:28;;;;;;;36.03;16.73;;;-3.40;99.90;;;;;;4918317;29;20119;-76
2024/01/10 04:37:54;;;;;;;28.13;15.25;;;-3.40;99.90;;;;;;4918228;29;20059;-77
2024/01/10 04:40:19;;;;;;;27.65;15.77;;;-3.40;99.90;;;;;;4901075;29;20052;-76
2024/01/10 04:42:46;;;;;;;27.67;14.95;;;-3.40;99.90;;;;;;4901267;29;20110;-77
2024/01/10 04:45:11;;;;;;;28.05;15.57;;;-3.40;99.90;;;;;;4918082;29;20052;-72
2024/01/10 04:47:37;;;;;;;27.08;14.70;;;-3.40;99.90;;;;;;4917981;29;20060;-80
2024/01/10 04:50:03;;;;;;;30.85;15.32;;;-3.30;99.90;;;;;;4918153;29;20052;-79
2024/01/10 04:52:29;;;;;;;29.40;15.38;;;-3.40;99.90;;;;;;4917912;29;20051;-78
2024/01/10 04:54:54;;;;;;;26.98;13.95;;;-3.40;99.90;;;;;;4917835;29;20067;-80
2024/01/10 04:57:20;;;;;;;26.20;13.57;;;-3.30;99.90;;;;;;4917759;29;20136;-80
2024/01/10 04:59:46;;;;;;;25.05;12.90;;;-3.30;99.90;;;;;;4918075;29;20048;-80
2024/01/10 05:02:12;;;;;;;25.30;12.57;;;-3.30;99.90;;;;;;4917385;29;20059;-80
2024/01/10 05:04:38;;;;;;;26.80;14.50;;;-3.30;99.90;;;;;;4917701;29;20052;-80
2024/01/10 05:07:03;;;;;;;29.52;14.93;;;-3.30;99.90;;;;;;4917666;29;20522;-80
2024/01/10 05:09:29;;;;;;;26.30;14.05;;;-3.30;99.90;;;;;;4917371;29;20048;-80
2024/01/10 05:11:55;;;;;;;28.73;15.30;;;-3.20;99.90;;;;;;4917092;29;20044;-78
2024/01/10 05:14:21;;;;;;;28.33;16.10;;;-3.20;99.90;;;;;;4917365;29;20131;-74
2024/01/10 05:16:50;;;;;;;28.80;14.85;;;-3.20;99.90;;;;;;4900720;29;20063;-80
2024/01/10 05:19:15;;;;;;;28.10;16.38;;;-3.20;99.90;;;;;;4917553;29;20052;-76
2024/01/10 05:21:41;;;;;;;29.40;15.05;;;-3.20;99.90;;;;;;4917427;29;20063;-77
2024/01/10 05:24:07;;;;;;;28.17;15.38;;;-3.10;99.90;;;;;;4917057;29;20507;-80
2024/01/10 05:26:33;;;;;;;24.77;13.65;;;-3.10;99.90;;;;;;4917775;29;20047;-79
2024/01/10 05:28:58;;;;;;;27.13;15.52;;;-3.10;99.90;;;;;;4917371;29;20048;-80
2024/01/10 05:31:24;;;;;;;29.63;15.52;;;-3.00;99.90;;;;;;4917270;29;20146;-81
2024/01/10 05:33:50;;;;;;;26.67;14.70;;;-3.00;99.90;;;;;;4900077;29;20449;-80
2024/01/10 05:36:15;;;;;;;25.73;15.07;;;-3.00;99.90;;;;;;4900152;29;20150;-80
2024/01/10 05:38:41;;;;;;;26.33;14.32;;;-3.00;99.90;;;;;;4917176;29;20060;-80
2024/01/10 05:41:07;;;;;;;24.38;13.70;;;-3.10;99.90;;;;;;4916176;29;20088;-79
2024/01/10 05:43:32;;;;;;;26.35;14.63;;;-3.10;99.90;;;;;;4916980;29;20103;-78
2024/01/10 05:45:59;;;;;;;31.50;15.30;;;-3.00;99.90;;;;;;4916980;29;20048;-79
2024/01/10 05:48:25;;;;;;;29.88;15.43;;;-3.10;99.90;;;;;;4899767;29;20449;-79
2024/01/10 05:50:51;;;;;;;28.20;15.65;;;-3.10;99.90;;;;;;4916996;29;20044;-77
2024/01/10 05:53:17;;;;;;;30.70;15.10;;;-3.10;99.90;;;;;;4899485;29;20060;-79
2024/01/10 05:55:43;;;;;;;27.65;15.55;;;-3.10;99.90;;;;;;4916768;29;20091;-81
2024/01/10 05:58:10;;;;;;;28.73;15.65;;;-3.10;99.90;;;;;;4916759;29;20056;-80
2024/01/10 06:00:35;;;;;;;32.22;16.73;;;-3.10;99.90;;;;;;4899628;29;20048;-81
2024/01/10 06:03:01;;;;;;;26.75;15.60;;;-3.20;99.90;;;;;;4916705;29;20056;-80
2024/01/10 06:05:27;;;;;;;27.05;14.70;;;-3.20;99.90;;;;;;4899189;29;20048;-71
2024/01/10 06:07:52;;;;;;;27.05;13.70;;;-3.20;99.90;;;;;;4916656;29;20059;-79
2024/01/10 06:10:18;;;;;;;27.17;15.27;;;-3.20;99.90;;;;;;4899079;29;20071;-81
2024/01/10 06:12:44;;;;;;;26.77;14.43;;;-3.20;99.90;;;;;;4916177;29;20063;-79
2024/01/10 06:15:10;;;;;;;22.98;13.38;;;-3.20;99.90;;;;;;4916395;29;20048;-80
2024/01/10 06:17:35;;;;;;;24.10;14.20;;;-3.30;99.90;;;;;;4916090;29;20404;-79
2024/01/10 06:20:03;;;;;;;24.38;14.05;;;-3.30;99.90;;;;;;4916840;29;20138;-74
2024/01/10 06:22:28;;;;;;;28.13;14.80;;;-3.30;99.90;;;;;;4916469;29;20385;-71
2024/01/10 06:24:54;;;;;;;25.17;14.07;;;-3.30;99.90;;;;;;4916372;29;20135;-78
2024/01/10 06:27:20;;;;;;;30.35;15.40;;;-3.30;99.90;;;;;;4916629;29;20800;-81
2024/01/10 06:29:45;;;;;;;27.20;15.20;;;-3.30;99.90;;;;;;4916148;29;20091;-81
2024/01/10 06:32:11;;;;;;;22.95;13.15;;;-3.30;99.90;;;;;;4898842;29;20063;-78
2024/01/10 06:34:37;;;;;;;24.45;13.45;;;-3.20;99.90;;;;;;4916215;29;20059;-80
2024/01/10 06:37:03;;;;;;;30.35;13.80;;;-3.20;99.90;;;;;;4898828;29;20052;-78
2024/01/10 06:39:29;;;;;;;22.67;12.70;;;-3.10;99.90;;;;;;4916018;29;20506;-80
2024/01/10 06:41:55;;;;;;;24.85;13.75;;;-3.20;99.90;;;;;;4916252;29;20048;-80
2024/01/10 06:44:20;;;;;;;25.80;12.93;;;-3.10;99.90;;;;;;4915848;29;20155;-81
2024/01/10 06:46:46;;;;;;;23.98;12.05;;;-3.10;99.90;;;;;;4915753;29;20496;-79
2024/01/10 06:49:12;;;;;;;22.98;13.20;;;-3.10;99.90;;;;;;4915971;29;20442;-80
2024/01/10 06:51:38;;;;;;;25.95;12.88;;;-3.10;99.90;;;;;;4915474;29;20046;-74
2024/01/10 06:54:04;;;;;;;23.23;11.82;;;-3.10;99.90;;;;;;4898052;29;20062;-78
2024/01/10 06:56:30;;;;;;;24.75;13.30;;;-3.10;99.90;;;;;;4916022;29;20079;-80
2024/01/10 06:58:57;;;;;;;23.58;13.15;;;-3.10;99.90;;;;;;4899002;29;20135;-80
2024/01/10 07:01:23;;;;;;;25.42;13.27;;;-3.10;99.90;;;;;;4914242;29;20508;-80
2024/01/10 07:03:49;;;;;;;25.90;13.10;;;-3.10;99.90;;;;;;4915915;29;20059;-78
2024/01/10 07:06:15;;;;;;;26.25;13.25;;;-3.10;99.90;;;;;;4898507;29;20060;-80
2024/01/10 07:08:47;;;;;;;29.55;14.85;;;-3.10;99.90;;;;;;4898628;29;20062;-79
2024/01/10 07:11:13;;;;;;;26.38;14.50;;;-3.10;99.90;;;;;;4898041;29;20044;-78
2024/01/10 07:13:40;;;;;;;25.70;13.55;;;-3.10;99.90;;;;;;4898349;29;20056;-77
2024/01/10 07:16:05;;;;;;;25.88;14.32;;;-3.10;99.90;;;;;;4915444;29;20054;-81
2024/01/10 07:18:31;;;;;;;24.05;13.02;;;-3.10;99.90;;;;;;4898676;29;20479;-72
2024/01/10 07:20:57;;;;;;;26.45;14.85;;;-3.10;99.90;;;;;;4898443;29;20081;-80
2024/01/10 07:23:22;;;;;;;26.25;13.90;;;-3.10;99.90;;;;;;4898372;29;20063;-71
2024/01/10 07:25:49;;;;;;;28.40;15.27;;;-3.10;99.90;;;;;;4915184;29;20055;-73
2024/01/10 07:28:16;;;;;;;24.80;15.10;;;-3.10;99.90;;;;;;4915173;29;20056;-80
2024/01/10 07:30:41;;;;;;;27.42;14.55;;;-3.10;99.90;;;;;;4898058;29;20084;-80
2024/01/10 07:33:07;;;;;;;28.05;13.88;;;-3.10;99.90;;;;;;4915275;29;20060;-80
2024/01/10 07:35:33;;;;;;;25.20;14.10;;;-3.10;99.90;;;;;;4915152;29;20055;-79
2024/01/10 07:37:59;;;;;;;26.13;13.98;;;-3.10;99.90;;;;;;4898111;29;20048;-81
2024/01/10 07:40:25;;;;;;;29.48;15.88;;;-3.10;99.90;;;;;;4915471;29;20377;-81
2024/01/10 07:42:50;;;;;;;29.05;15.93;;;-3.20;99.90;;;;;;4897858;29;20071;-80
2024/01/10 07:45:17;;;;;;;28.05;16.40;;;-3.20;99.90;;;;;;4914978;29;20504;-80
2024/01/10 07:47:42;;;;;;;30.77;16.55;;;-3.20;99.90;;;;;;4914862;29;20521;-73
2024/01/10 07:50:10;;;;;;;26.13;14.77;;;-3.20;99.90;;;;;;4914903;29;20079;-73
2024/01/10 07:52:36;;;;;;;27.55;14.70;;;-3.20;99.90;;;;;;4914883;29;20177;-80
2024/01/10 07:55:06;;;;;;;27.13;15.05;;;-3.20;99.90;;;;;;4897859;29;20055;-76
2024/01/10 07:57:33;;;;;;;26.48;13.88;;;-3.20;99.90;;;;;;4882023;29;20543;-72
2024/01/10 08:00:00;;;;;;;28.15;14.25;;;-3.20;99.90;;;;;;4914744;29;20415;-71
2024/01/10 08:02:25;;;;;;;31.15;14.90;;;-3.20;99.90;;;;;;4914968;29;20071;-79
2024/01/10 08:04:52;;;;;;;33.67;15.32;;;-3.10;99.90;;;;;;4916636;29;20048;-81
2024/01/10 08:07:19;;;;;;;29.42;15.02;;;-3.20;99.90;;;;;;4885940;29;20428;-76
2024/01/10 08:12:20;;;;;;;28.92;14.55;;;-3.10;99.90;;;;;;4922127;23;20064;-81
2024/01/10 08:14:49;;;;;;;31.13;14.68;;;-3.00;99.90;;;;;;4918664;29;20072;-80
2024/01/10 08:17:15;;;;;;;27.75;13.93;;;-3.10;99.90;;;;;;4918710;29;20089;-75
2024/01/10 08:19:41;;;;;;;29.70;13.52;;;-3.00;99.90;;;;;;4918195;29;20100;-78
2024/01/10 08:22:07;;;;;;;28.83;13.30;;;-3.00;99.90;;;;;;4918406;29;20095;-81
2024/01/10 08:24:33;;;;;;;30.95;13.15;;;-2.90;99.90;;;;;;4918408;29;20421;-77
2024/01/10 08:26:59;;;;;;;28.70;13.30;;;-2.90;99.90;;;;;;4918179;29;20095;-79
2024/01/10 08:29:30;;;;;;;25.30;10.75;;;-2.80;99.90;;;;;;4918333;29;20044;-75
2024/01/10 08:31:56;;;;;;;25.05;11.70;;;-2.80;99.90;;;;;;4918320;29;20063;-81
2024/01/10 08:34:22;;;;;;;23.42;11.02;;;-2.70;99.90;;;;;;4901508;29;20056;-81
2024/01/10 08:36:50;;;;;;;24.05;11.40;;;-2.70;99.90;;;;;;4918227;29;20087;-78
2024/01/10 08:39:17;;;;;;;24.77;12.02;;;-2.60;99.90;;;;;;4918347;29;20048;-79
2024/01/10 08:41:44;;;;;;;26.45;12.80;;;-2.50;99.90;;;;;;4918177;29;20048;-79
2024/01/10 08:44:13;;;;;;;26.25;12.75;;;-2.50;99.90;;;;;;4901034;29;20061;-78
2024/01/10 08:46:39;;;;;;;24.10;12.30;;;-2.40;99.90;;;;;;4901193;29;20128;-81
2024/01/10 08:49:05;;;;;;;25.27;13.02;;;-2.40;99.90;;;;;;4917949;29;20532;-81
2024/01/10 08:51:31;;;;;;;27.42;13.55;;;-2.30;99.90;;;;;;4917875;29;20549;-80
2024/01/10 08:53:57;;;;;;;29.60;12.63;;;-2.20;99.90;;;;;;4901039;29;20512;-74
2024/01/10 08:56:23;;;;;;;27.08;12.27;;;-2.10;99.90;;;;;;4917730;29;20131;-76
2024/01/10 08:58:49;;;;;;;26.02;12.10;;;-2.10;99.90;;;;;;4917356;29;20056;-80
2024/01/10 09:01:15;;;;;;;31.40;13.32;;;-2.00;99.90;;;;;;4917894;29;20056;-81
2024/01/10 09:03:41;;;;;;;27.30;11.75;;;-1.90;99.90;;;;;;4917408;29;20062;-81
2024/01/10 09:06:09;;;;;;;27.83;11.50;;;-1.80;99.90;;;;;;4900678;29;20052;-82
2024/01/10 09:08:35;;;;;;;25.58;12.57;;;-1.70;99.90;;;;;;4917815;29;20131;-80
2024/01/10 09:11:00;;;;;;;26.13;11.38;;;-1.60;99.90;;;;;;4917818;29;20132;-82
2024/01/10 09:13:27;;;;;;;27.05;12.98;;;-1.50;99.90;;;;;;4917781;29;20071;-80
2024/01/10 09:15:52;;;;;;;26.88;10.77;;;-1.40;99.90;;;;;;4916918;29;20059;-81
2024/01/10 09:18:18;;;;;;;22.98;10.15;;;-1.30;99.90;;;;;;4900159;29;20416;-81
2024/01/10 09:20:44;;;;;;;27.80;10.15;;;-1.20;99.90;;;;;;4917540;29;20054;-82
2024/01/10 09:23:10;;;;;;;24.17;11.13;;;-1.10;99.90;;;;;;4917489;29;20048;-79
2024/01/10 09:25:36;;;;;;;21.17;10.68;;;-1.00;99.90;;;;;;4900221;29;20071;-82
2024/01/10 09:28:04;;;;;;;24.67;10.25;;;-0.90;99.90;;;;;;4899880;29;20060;-76
2024/01/10 09:30:30;;;;;;;23.33;8.90;;;-0.80;99.90;;;;;;4900189;29;20059;-77
2024/01/10 09:32:56;;;;;;;23.75;11.18;;;-0.60;99.90;;;;;;4916797;29;20056;-82
2024/01/10 09:35:22;;;;;;;22.95;9.68;;;-0.50;99.90;;;;;;4916548;29;20506;-78
2024/01/10 09:37:48;;;;;;;22.45;10.20;;;-0.50;99.90;;;;;;4917207;29;20115;-81
2024/01/10 09:40:16;;;;;;;21.08;8.95;;;-0.40;99.90;;;;;;4916986;29;20083;-78
2024/01/10 09:42:43;;;;;;;22.52;8.93;;;-0.40;99.90;;;;;;4916746;29;20505;-82
2024/01/10 09:45:10;;;;;;;21.90;9.98;;;-0.30;99.90;;;;;;4917029;29;20677;-80
2024/01/10 09:47:38;;;;;;;22.40;9.73;;;-0.30;99.90;;;;;;4916579;29;20084;-81
2024/01/10 09:50:05;;;;;;;22.38;8.75;;;-0.30;99.90;;;;;;4899951;29;20091;-81
2024/01/10 09:52:41;;;;;;;22.23;8.68;;;-0.10;99.90;;;;;;4916961;29;20116;-79
2024/01/10 09:55:08;;;;;;;21.92;9.90;;;-0.10;99.90;;;;;;4916840;29;20217;-73
2024/01/10 09:57:36;;;;;;;23.08;9.77;;;0.00;99.90;;;;;;4916615;29;20048;-81
2024/01/10 10:00:04;;;;;;;20.38;8.60;;;0.20;99.90;;;;;;4899974;29;20055;-75
2024/01/10 10:02:32;;;;;;;22.23;9.07;;;0.30;99.90;;;;;;4900209;29;20488;-82
2024/01/10 10:05:07;;;;;;;19.90;9.20;;;0.50;99.90;;;;;;4916929;29;20052;-81
2024/01/10 10:07:49;;;;;;;19.67;9.00;;;0.50;99.90;;;;;;4916410;29;20047;-82
2024/01/10 10:10:16;;;;;;;18.90;8.38;;;0.80;99.90;;;;;;4916028;29;20119;-83
2024/01/10 10:12:49;;;;;;;20.33;9.70;;;1.00;99.90;;;;;;4899861;29;20387;-81
2024/01/10 10:15:18;;;;;;;20.48;8.55;;;1.30;99.90;;;;;;4899501;29;20500;-77
2024/01/10 10:17:48;;;;;;;17.52;8.27;;;1.40;99.90;;;;;;4916342;29;20060;-80
2024/01/10 10:20:26;;;;;;;17.10;8.98;;;1.50;99.90;;;;;;4899286;29;20512;-72
2024/01/10 10:23:01;;;;;;;15.98;7.07;;;1.70;99.90;;;;;;4916242;29;20496;-76
2024/01/10 10:25:31;;;;;;;20.33;8.13;;;1.90;99.90;;;;;;4916509;29;20098;-76
2024/01/10 10:27:57;;;;;;;15.82;7.22;;;2.10;99.90;;;;;;4883794;29;20062;-78
2024/01/10 10:30:23;;;;;;;17.17;8.30;;;2.40;99.90;;;;;;4898801;29;20086;-79
2024/01/10 10:32:50;;;;;;;17.42;7.25;;;2.40;99.90;;;;;;4899034;29;20107;-77
2024/01/10 10:35:15;;;;;;;15.60;7.45;;;2.70;99.90;;;;;;4916092;29;20048;-79
2024/01/10 10:37:41;;;;;;;17.05;8.05;;;3.00;99.90;;;;;;4916181;29;20080;-80
2024/01/10 10:40:11;;;;;;;14.07;7.03;;;3.40;99.90;;;;;;4916316;29;20441;-73
2024/01/10 10:42:43;;;;;;;18.63;8.80;;;3.50;99.90;;;;;;4898731;29;20056;-82
2024/01/10 10:45:14;;;;;;;14.57;7.57;;;3.60;99.90;;;;;;4915838;29;20056;-77
2024/01/10 10:47:44;;;;;;;15.10;6.25;;;3.90;99.90;;;;;;4916154;29;20047;-79
2024/01/10 10:50:14;;;;;;;16.20;7.25;;;3.50;99.90;;;;;;4898767;29;20056;-72
2024/01/10 10:52:44;;;;;;;13.88;7.03;;;3.40;99.90;;;;;;4915459;29;20131;-78
2024/01/10 10:55:13;;;;;;;15.43;7.65;;;3.60;99.90;;;;;;4898848;29;20064;-73
2024/01/10 10:57:39;;;;;;;15.65;7.70;;;3.90;99.90;;;;;;4899157;29;20104;-73
2024/01/10 11:00:07;;;;;;;15.13;8.02;;;4.20;99.90;;;;;;4916616;29;20052;-75
2024/01/10 11:02:33;;;;;;;13.55;6.75;;;4.00;99.90;;;;;;4916372;29;20115;-83
2024/01/10 11:05:00;;;;;;;15.13;6.60;;;3.70;99.90;;;;;;4898486;29;20047;-80
2024/01/10 11:07:27;;;;;;;16.15;8.07;;;3.50;99.90;;;;;;4915501;29;20056;-77
2024/01/10 11:09:54;;;;;;;12.15;6.65;;;3.90;99.90;;;;;;4915573;29;20111;-77
2024/01/10 11:13:08;;;;;;;11.23;6.10;;;4.20;99.90;;;;;;4915356;29;20508;-79
2024/01/10 11:16:09;;;;;;;12.77;6.55;;;4.60;99.90;;;;;;4893646;29;20052;-80
2024/01/10 11:18:41;;;;;;;16.00;7.07;;;5.10;99.90;;;;;;4898986;29;20052;-83
2024/01/10 11:21:17;;;;;;;11.95;6.60;;;5.40;99.90;;;;;;4916060;29;20088;-82
2024/01/10 11:23:49;;;;;;;14.77;7.25;;;5.50;99.90;;;;;;4898826;29;20059;-80
2024/01/10 11:26:16;;;;;;;11.75;5.50;;;5.80;99.90;;;;;;4898464;29;20123;-81
2024/01/10 11:28:42;;;;;;;11.15;5.40;;;6.40;99.90;;;;;;4919264;29;20112;-81
2024/01/10 11:31:08;;;;;;;10.27;5.35;;;7.00;99.90;;;;;;4915915;29;20107;-81
2024/01/10 11:33:39;;;;;;;10.40;5.35;;;7.00;98.20;;;;;;4915298;29;20066;-80
2024/01/10 11:36:13;;;;;;;13.13;5.47;;;7.10;97.60;;;;;;4915559;29;20151;-82
2024/01/10 11:38:51;;;;;;;11.50;5.30;;;7.00;96.70;;;;;;4915753;29;20058;-86
2024/01/10 11:41:36;;;;;;;12.38;5.25;;;7.20;96.10;;;;;;4915153;29;20079;-77
2024/01/10 11:44:11;;;;;;;10.88;5.03;;;7.40;95.10;;;;;;4915417;29;20059;-76
2024/01/10 11:46:40;;;;;;;14.13;6.85;;;8.10;96.10;;;;;;4915066;29;20058;-80
2024/01/10 11:49:11;;;;;;;11.45;5.60;;;8.70;95.90;;;;;;4898396;29;20464;-79
2024/01/10 11:51:37;;;;;;;12.35;5.75;;;9.60;94.00;;;;;;4915105;29;20052;-72
2024/01/10 11:54:03;;;;;;;12.57;5.57;;;10.00;94.00;;;;;;4916284;29;20048;-72
2024/01/10 11:56:41;;;;;;;11.63;5.55;;;10.10;92.80;;;;;;4915045;29;20460;-77
2024/01/10 11:59:10;;;;;;;10.65;5.90;;;10.20;87.50;;;;;;4915592;29;20067;-84
2024/01/10 12:01:40;;;;;;;10.27;5.00;;;9.90;88.90;;;;;;4898896;29;20048;-85
2024/01/10 12:04:06;;;;;;;12.45;5.57;;;9.70;90.60;;;;;;4898170;29;20493;-77
2024/01/10 12:06:36;;;;;;;11.90;5.32;;;9.50;90.80;;;;;;4898132;29;20063;-78
2024/01/10 12:09:08;;;;;;;12.82;6.03;;;9.20;91.00;;;;;;4897797;29;20100;-76
2024/01/10 12:11:35;;;;;;;13.70;6.75;;;8.80;90.90;;;;;;4915079;29;20066;-78
2024/01/10 12:14:04;;;;;;;12.27;6.05;;;8.80;92.00;;;;;;4915044;29;20055;-77
2024/01/10 12:16:32;;;;;;;12.65;6.30;;;9.00;92.20;;;;;;4914833;29;20452;-76
2024/01/10 12:18:57;;;;;;;10.35;5.35;;;9.10;92.00;;;;;;4914983;29;20445;-83
2024/01/10 12:21:23;;;;;;;15.52;6.60;;;9.70;91.80;;;;;;4882086;29;20052;-74
2024/01/10 12:23:51;;;;;;;11.05;6.00;;;10.40;91.70;;;;;;4914816;29;20500;-72
2024/01/10 12:26:18;;;;;;;13.50;6.47;;;11.00;90.60;;;;;;4914555;29;20060;-75
2024/01/10 12:28:55;;;;;;;14.98;6.82;;;11.50;90.00;;;;;;4897358;29;20063;-75
2024/01/10 12:31:22;;;;;;;13.18;6.72;;;12.20;81.30;;;;;;4881655;29;20059;-75